sensor_id;sensor_type;location;lat;lon;timestamp;temperature;humidity
360;DHT22;168;48.872;9.226;2022-07-23T00:00:43;26.20;72.60
360;DHT22;168;48.872;9.226;2022-07-23T00:03:12;26.30;72.40
360;DHT22;168;48.872;9.226;2022-07-23T00:05:40;26.30;72.00
360;DHT22;168;48.872;9.226;2022-07-23T00:08:07;26.20;71.10
360;DHT22;168;48.872;9.226;2022-07-23T00:10:35;26.30;70.40
360;DHT22;168;48.872;9.226;2022-07-23T00:13:03;26.30;69.90
360;DHT22;168;48.872;9.226;2022-07-23T00:15:30;26.20;69.70
360;DHT22;168;48.872;9.226;2022-07-23T00:17:58;26.20;69.90
360;DHT22;168;48.872;9.226;2022-07-23T00:20:27;26.20;69.50
360;DHT22;168;48.872;9.226;2022-07-23T00:22:55;26.20;69.40
360;DHT22;168;48.872;9.226;2022-07-23T00:25:24;26.10;69.60
360;DHT22;168;48.872;9.226;2022-07-23T00:27:53;26.10;69.60
360;DHT22;168;48.872;9.226;2022-07-23T00:30:21;26.10;69.70
360;DHT22;168;48.872;9.226;2022-07-23T00:32:50;26.00;69.70
360;DHT22;168;48.872;9.226;2022-07-23T00:35:20;26.00;70.20
360;DHT22;168;48.872;9.226;2022-07-23T00:37:49;26.00;70.00
360;DHT22;168;48.872;9.226;2022-07-23T00:40:16;26.00;70.20
360;DHT22;168;48.872;9.226;2022-07-23T00:42:44;25.90;70.20
360;DHT22;168;48.872;9.226;2022-07-23T00:45:11;25.90;70.50
360;DHT22;168;48.872;9.226;2022-07-23T00:47:39;25.90;70.30
360;DHT22;168;48.872;9.226;2022-07-23T00:50:08;25.90;70.60
360;DHT22;168;48.872;9.226;2022-07-23T00:52:37;25.90;71.00
360;DHT22;168;48.872;9.226;2022-07-23T00:55:08;25.80;71.20
360;DHT22;168;48.872;9.226;2022-07-23T00:57:37;25.80;71.30
360;DHT22;168;48.872;9.226;2022-07-23T01:00:06;25.70;71.50
360;DHT22;168;48.872;9.226;2022-07-23T01:02:34;25.60;71.60
360;DHT22;168;48.872;9.226;2022-07-23T01:05:02;25.60;71.70
360;DHT22;168;48.872;9.226;2022-07-23T01:07:30;25.60;71.70
360;DHT22;168;48.872;9.226;2022-07-23T01:09:57;25.50;72.00
360;DHT22;168;48.872;9.226;2022-07-23T01:12:27;25.50;72.10
360;DHT22;168;48.872;9.226;2022-07-23T01:14:55;25.40;72.50
360;DHT22;168;48.872;9.226;2022-07-23T01:17:22;25.40;72.40
360;DHT22;168;48.872;9.226;2022-07-23T01:19:50;25.30;72.70
360;DHT22;168;48.872;9.226;2022-07-23T01:22:18;25.30;72.80
360;DHT22;168;48.872;9.226;2022-07-23T01:24:47;25.20;72.90
360;DHT22;168;48.872;9.226;2022-07-23T01:27:15;25.20;73.10
360;DHT22;168;48.872;9.226;2022-07-23T01:29:43;25.30;73.20
360;DHT22;168;48.872;9.226;2022-07-23T01:32:11;25.20;73.20
360;DHT22;168;48.872;9.226;2022-07-23T01:34:39;25.20;73.60
360;DHT22;168;48.872;9.226;2022-07-23T01:37:07;25.10;73.80
360;DHT22;168;48.872;9.226;2022-07-23T01:39:34;25.20;73.90
360;DHT22;168;48.872;9.226;2022-07-23T01:42:04;25.10;74.00
360;DHT22;168;48.872;9.226;2022-07-23T01:44:32;25.10;74.50
360;DHT22;168;48.872;9.226;2022-07-23T01:47:00;25.10;74.30
360;DHT22;168;48.872;9.226;2022-07-23T01:49:27;25.00;74.80
360;DHT22;168;48.872;9.226;2022-07-23T01:51:56;25.00;74.90
360;DHT22;168;48.872;9.226;2022-07-23T01:54:34;24.90;74.90
360;DHT22;168;48.872;9.226;2022-07-23T01:57:04;24.90;75.00
360;DHT22;168;48.872;9.226;2022-07-23T01:59:32;24.90;75.20
360;DHT22;168;48.872;9.226;2022-07-23T02:02:00;24.90;75.50
360;DHT22;168;48.872;9.226;2022-07-23T02:04:29;24.80;75.70
360;DHT22;168;48.872;9.226;2022-07-23T02:06:58;24.80;76.10
360;DHT22;168;48.872;9.226;2022-07-23T02:09:25;24.80;76.40
360;DHT22;168;48.872;9.226;2022-07-23T02:11:53;24.70;76.50
360;DHT22;168;48.872;9.226;2022-07-23T02:14:22;24.70;76.80
360;DHT22;168;48.872;9.226;2022-07-23T02:16:50;24.70;77.10
360;DHT22;168;48.872;9.226;2022-07-23T02:19:17;24.70;77.70
360;DHT22;168;48.872;9.226;2022-07-23T02:21:45;24.60;78.00
360;DHT22;168;48.872;9.226;2022-07-23T02:24:14;24.70;77.80
360;DHT22;168;48.872;9.226;2022-07-23T02:26:41;24.60;77.90
360;DHT22;168;48.872;9.226;2022-07-23T02:29:09;24.50;78.00
360;DHT22;168;48.872;9.226;2022-07-23T02:31:38;24.40;78.50
360;DHT22;168;48.872;9.226;2022-07-23T02:34:06;24.30;78.80
360;DHT22;168;48.872;9.226;2022-07-23T02:36:37;24.20;79.10
360;DHT22;168;48.872;9.226;2022-07-23T02:39:05;24.10;79.70
360;DHT22;168;48.872;9.226;2022-07-23T02:41:32;24.10;79.60
360;DHT22;168;48.872;9.226;2022-07-23T02:44:00;24.00;80.00
360;DHT22;168;48.872;9.226;2022-07-23T02:46:28;23.90;80.50
360;DHT22;168;48.872;9.226;2022-07-23T02:48:56;23.90;80.50
360;DHT22;168;48.872;9.226;2022-07-23T02:51:24;23.90;80.70
360;DHT22;168;48.872;9.226;2022-07-23T02:53:51;23.80;80.90
360;DHT22;168;48.872;9.226;2022-07-23T02:56:19;23.70;81.00
360;DHT22;168;48.872;9.226;2022-07-23T02:58:46;23.70;81.20
360;DHT22;168;48.872;9.226;2022-07-23T03:01:14;23.70;81.30
360;DHT22;168;48.872;9.226;2022-07-23T03:03:41;23.60;81.50
360;DHT22;168;48.872;9.226;2022-07-23T03:06:10;23.70;81.20
360;DHT22;168;48.872;9.226;2022-07-23T03:08:38;23.70;80.90
360;DHT22;168;48.872;9.226;2022-07-23T03:11:06;23.60;81.10
360;DHT22;168;48.872;9.226;2022-07-23T03:13:37;23.60;81.10
360;DHT22;168;48.872;9.226;2022-07-23T03:16:05;23.60;81.20
360;DHT22;168;48.872;9.226;2022-07-23T03:18:33;23.60;81.20
360;DHT22;168;48.872;9.226;2022-07-23T03:21:00;23.80;81.10
360;DHT22;168;48.872;9.226;2022-07-23T03:23:30;23.80;81.20
360;DHT22;168;48.872;9.226;2022-07-23T03:25:57;23.80;81.10
360;DHT22;168;48.872;9.226;2022-07-23T03:28:24;23.80;81.30
360;DHT22;168;48.872;9.226;2022-07-23T03:30:52;23.80;81.50
360;DHT22;168;48.872;9.226;2022-07-23T03:33:19;23.80;81.50
360;DHT22;168;48.872;9.226;2022-07-23T03:35:48;23.80;81.50
360;DHT22;168;48.872;9.226;2022-07-23T03:38:15;23.70;81.80
360;DHT22;168;48.872;9.226;2022-07-23T03:40:44;23.70;82.00
360;DHT22;168;48.872;9.226;2022-07-23T03:43:12;23.70;82.20
360;DHT22;168;48.872;9.226;2022-07-23T03:45:39;23.70;82.20
360;DHT22;168;48.872;9.226;2022-07-23T03:48:07;23.60;82.20
360;DHT22;168;48.872;9.226;2022-07-23T03:50:34;23.60;82.30
360;DHT22;168;48.872;9.226;2022-07-23T03:53:03;23.50;82.60
360;DHT22;168;48.872;9.226;2022-07-23T03:55:30;23.50;82.70
360;DHT22;168;48.872;9.226;2022-07-23T03:57:59;23.40;82.80
360;DHT22;168;48.872;9.226;2022-07-23T04:00:27;23.40;83.00
360;DHT22;168;48.872;9.226;2022-07-23T04:02:54;23.40;83.10
360;DHT22;168;48.872;9.226;2022-07-23T04:05:22;23.40;83.20
360;DHT22;168;48.872;9.226;2022-07-23T04:07:49;23.40;83.20
360;DHT22;168;48.872;9.226;2022-07-23T04:10:17;23.40;83.20
360;DHT22;168;48.872;9.226;2022-07-23T04:12:44;23.40;83.00
360;DHT22;168;48.872;9.226;2022-07-23T04:15:13;23.40;83.00
360;DHT22;168;48.872;9.226;2022-07-23T04:17:41;23.40;82.90
360;DHT22;168;48.872;9.226;2022-07-23T04:20:10;23.40;82.80
360;DHT22;168;48.872;9.226;2022-07-23T04:22:38;23.40;82.70
360;DHT22;168;48.872;9.226;2022-07-23T04:25:06;23.40;82.80
360;DHT22;168;48.872;9.226;2022-07-23T04:27:34;23.40;83.00
360;DHT22;168;48.872;9.226;2022-07-23T04:30:02;23.40;82.90
360;DHT22;168;48.872;9.226;2022-07-23T04:32:31;23.50;82.60
360;DHT22;168;48.872;9.226;2022-07-23T04:34:59;23.60;82.20
360;DHT22;168;48.872;9.226;2022-07-23T04:37:27;23.50;82.40
360;DHT22;168;48.872;9.226;2022-07-23T04:39:54;23.60;82.30
360;DHT22;168;48.872;9.226;2022-07-23T04:42:22;23.70;82.10
360;DHT22;168;48.872;9.226;2022-07-23T04:44:50;23.80;81.80
360;DHT22;168;48.872;9.226;2022-07-23T04:47:17;23.80;81.90
360;DHT22;168;48.872;9.226;2022-07-23T04:49:46;23.80;82.00
360;DHT22;168;48.872;9.226;2022-07-23T04:52:13;23.80;82.00
360;DHT22;168;48.872;9.226;2022-07-23T04:54:41;23.90;81.90
360;DHT22;168;48.872;9.226;2022-07-23T04:57:08;23.90;81.60
360;DHT22;168;48.872;9.226;2022-07-23T04:59:36;24.00;81.30
360;DHT22;168;48.872;9.226;2022-07-23T05:02:03;24.10;81.30
360;DHT22;168;48.872;9.226;2022-07-23T05:04:31;24.10;81.00
360;DHT22;168;48.872;9.226;2022-07-23T05:07:00;24.20;80.90
360;DHT22;168;48.872;9.226;2022-07-23T05:09:27;24.20;80.60
360;DHT22;168;48.872;9.226;2022-07-23T05:11:55;24.30;80.60
360;DHT22;168;48.872;9.226;2022-07-23T05:14:23;24.30;80.70
360;DHT22;168;48.872;9.226;2022-07-23T05:16:50;24.30;80.70
360;DHT22;168;48.872;9.226;2022-07-23T05:19:18;24.30;80.90
360;DHT22;168;48.872;9.226;2022-07-23T05:21:45;24.40;80.90
360;DHT22;168;48.872;9.226;2022-07-23T05:24:14;24.50;80.20
360;DHT22;168;48.872;9.226;2022-07-23T05:26:42;24.70;80.00
360;DHT22;168;48.872;9.226;2022-07-23T05:29:09;24.80;80.00
360;DHT22;168;48.872;9.226;2022-07-23T05:31:36;24.90;79.00
360;DHT22;168;48.872;9.226;2022-07-23T05:34:04;25.00;78.70
360;DHT22;168;48.872;9.226;2022-07-23T05:36:32;25.00;79.00
360;DHT22;168;48.872;9.226;2022-07-23T05:38:59;25.00;79.30
360;DHT22;168;48.872;9.226;2022-07-23T05:41:28;25.00;79.40
360;DHT22;168;48.872;9.226;2022-07-23T05:43:56;25.00;79.60
360;DHT22;168;48.872;9.226;2022-07-23T05:46:24;25.10;79.30
360;DHT22;168;48.872;9.226;2022-07-23T05:48:51;25.10;78.70
360;DHT22;168;48.872;9.226;2022-07-23T05:51:20;25.20;78.90
360;DHT22;168;48.872;9.226;2022-07-23T05:53:48;25.40;77.80
360;DHT22;168;48.872;9.226;2022-07-23T05:56:16;25.50;77.10
360;DHT22;168;48.872;9.226;2022-07-23T05:58:45;25.50;77.40
360;DHT22;168;48.872;9.226;2022-07-23T06:01:12;25.40;78.10
360;DHT22;168;48.872;9.226;2022-07-23T06:03:40;25.40;78.30
360;DHT22;168;48.872;9.226;2022-07-23T06:06:08;25.30;78.90
360;DHT22;168;48.872;9.226;2022-07-23T06:08:35;25.20;79.40
360;DHT22;168;48.872;9.226;2022-07-23T06:11:02;25.00;79.90
360;DHT22;168;48.872;9.226;2022-07-23T06:13:30;24.70;78.40
360;DHT22;168;48.872;9.226;2022-07-23T06:15:59;24.60;78.40
360;DHT22;168;48.872;9.226;2022-07-23T06:18:29;24.50;79.30
360;DHT22;168;48.872;9.226;2022-07-23T06:20:58;24.30;79.20
360;DHT22;168;48.872;9.226;2022-07-23T06:23:28;24.30;79.20
360;DHT22;168;48.872;9.226;2022-07-23T06:25:56;24.20;79.20
360;DHT22;168;48.872;9.226;2022-07-23T06:28:24;24.10;79.40
360;DHT22;168;48.872;9.226;2022-07-23T06:30:52;24.00;79.70
360;DHT22;168;48.872;9.226;2022-07-23T06:33:21;24.00;80.10
360;DHT22;168;48.872;9.226;2022-07-23T06:35:48;24.00;79.90
360;DHT22;168;48.872;9.226;2022-07-23T06:38:16;24.00;80.00
360;DHT22;168;48.872;9.226;2022-07-23T06:40:43;24.10;79.60
360;DHT22;168;48.872;9.226;2022-07-23T06:43:11;24.10;79.40
360;DHT22;168;48.872;9.226;2022-07-23T06:45:38;24.20;78.90
360;DHT22;168;48.872;9.226;2022-07-23T06:48:06;24.40;79.30
360;DHT22;168;48.872;9.226;2022-07-23T06:50:35;24.50;79.10
360;DHT22;168;48.872;9.226;2022-07-23T06:53:02;24.60;78.50
360;DHT22;168;48.872;9.226;2022-07-23T06:55:29;24.60;77.60
360;DHT22;168;48.872;9.226;2022-07-23T06:58:00;24.60;78.20
360;DHT22;168;48.872;9.226;2022-07-23T07:00:27;24.50;78.70
360;DHT22;168;48.872;9.226;2022-07-23T07:02:54;24.50;79.00
360;DHT22;168;48.872;9.226;2022-07-23T07:05:22;24.40;79.30
360;DHT22;168;48.872;9.226;2022-07-23T07:07:53;24.30;79.60
360;DHT22;168;48.872;9.226;2022-07-23T07:10:21;23.90;80.90
360;DHT22;168;48.872;9.226;2022-07-23T07:12:49;23.50;82.40
360;DHT22;168;48.872;9.226;2022-07-23T07:15:16;23.10;83.10
360;DHT22;168;48.872;9.226;2022-07-23T07:17:44;22.80;84.30
360;DHT22;168;48.872;9.226;2022-07-23T07:20:11;22.60;85.70
360;DHT22;168;48.872;9.226;2022-07-23T07:22:39;22.50;86.40
360;DHT22;168;48.872;9.226;2022-07-23T07:25:08;22.50;86.60
360;DHT22;168;48.872;9.226;2022-07-23T07:27:36;22.50;86.90
360;DHT22;168;48.872;9.226;2022-07-23T07:30:05;22.40;87.10
360;DHT22;168;48.872;9.226;2022-07-23T07:32:33;22.20;87.50
360;DHT22;168;48.872;9.226;2022-07-23T07:35:03;22.10;88.40
360;DHT22;168;48.872;9.226;2022-07-23T07:37:30;21.90;89.50
360;DHT22;168;48.872;9.226;2022-07-23T07:39:58;21.70;89.90
360;DHT22;168;48.872;9.226;2022-07-23T07:42:27;21.40;90.00
360;DHT22;168;48.872;9.226;2022-07-23T07:44:54;21.30;90.20
360;DHT22;168;48.872;9.226;2022-07-23T07:47:22;21.20;90.30
360;DHT22;168;48.872;9.226;2022-07-23T07:49:49;21.20;90.40
360;DHT22;168;48.872;9.226;2022-07-23T07:52:17;21.30;90.10
360;DHT22;168;48.872;9.226;2022-07-23T07:54:45;21.40;90.30
360;DHT22;168;48.872;9.226;2022-07-23T07:57:13;21.80;90.20
360;DHT22;168;48.872;9.226;2022-07-23T07:59:42;22.00;90.10
360;DHT22;168;48.872;9.226;2022-07-23T08:02:10;22.40;89.90
360;DHT22;168;48.872;9.226;2022-07-23T08:04:38;22.50;89.50
360;DHT22;168;48.872;9.226;2022-07-23T08:07:22;22.70;89.40
360;DHT22;168;48.872;9.226;2022-07-23T08:10:55;22.80;88.60
360;DHT22;168;48.872;9.226;2022-07-23T08:13:50;22.90;88.30
360;DHT22;168;48.872;9.226;2022-07-23T08:16:44;22.90;88.50
360;DHT22;168;48.872;9.226;2022-07-23T08:22:16;23.40;87.80
360;DHT22;168;48.872;9.226;2022-07-23T08:25:02;23.70;86.70
360;DHT22;168;48.872;9.226;2022-07-23T08:27:32;24.20;85.80
360;DHT22;168;48.872;9.226;2022-07-23T08:30:01;24.50;84.90
360;DHT22;168;48.872;9.226;2022-07-23T08:32:32;24.70;84.30
360;DHT22;168;48.872;9.226;2022-07-23T08:35:03;24.90;83.80
360;DHT22;168;48.872;9.226;2022-07-23T08:37:31;25.10;83.30
360;DHT22;168;48.872;9.226;2022-07-23T08:39:59;25.40;82.60
360;DHT22;168;48.872;9.226;2022-07-23T08:42:27;25.70;81.80
360;DHT22;168;48.872;9.226;2022-07-23T08:44:55;26.00;81.00
360;DHT22;168;48.872;9.226;2022-07-23T08:47:23;26.30;80.30
360;DHT22;168;48.872;9.226;2022-07-23T08:49:54;26.50;79.60
360;DHT22;168;48.872;9.226;2022-07-23T08:52:22;26.70;79.00
360;DHT22;168;48.872;9.226;2022-07-23T08:54:50;26.80;78.50
360;DHT22;168;48.872;9.226;2022-07-23T08:57:19;27.00;77.90
360;DHT22;168;48.872;9.226;2022-07-23T08:59:46;27.20;77.10
360;DHT22;168;48.872;9.226;2022-07-23T09:02:15;27.30;76.50
360;DHT22;168;48.872;9.226;2022-07-23T09:04:42;27.50;76.50
360;DHT22;168;48.872;9.226;2022-07-23T09:07:11;27.60;74.10
360;DHT22;168;48.872;9.226;2022-07-23T09:09:39;27.50;75.40
360;DHT22;168;48.872;9.226;2022-07-23T09:12:08;27.50;73.70
360;DHT22;168;48.872;9.226;2022-07-23T09:14:38;27.50;72.70
360;DHT22;168;48.872;9.226;2022-07-23T09:17:13;27.50;73.10
360;DHT22;168;48.872;9.226;2022-07-23T09:19:42;27.70;73.10
360;DHT22;168;48.872;9.226;2022-07-23T09:22:22;27.80;73.20
360;DHT22;168;48.872;9.226;2022-07-23T09:25:03;28.00;72.50
360;DHT22;168;48.872;9.226;2022-07-23T09:27:46;28.20;70.80
360;DHT22;168;48.872;9.226;2022-07-23T09:30:14;28.20;70.80
360;DHT22;168;48.872;9.226;2022-07-23T09:32:42;28.20;71.50
360;DHT22;168;48.872;9.226;2022-07-23T09:35:10;28.10;71.50
360;DHT22;168;48.872;9.226;2022-07-23T09:37:38;28.10;71.20
360;DHT22;168;48.872;9.226;2022-07-23T09:40:08;28.00;70.80
360;DHT22;168;48.872;9.226;2022-07-23T09:42:38;28.00;69.80
360;DHT22;168;48.872;9.226;2022-07-23T09:45:10;27.80;70.80
360;DHT22;168;48.872;9.226;2022-07-23T09:47:38;27.90;71.30
360;DHT22;168;48.872;9.226;2022-07-23T09:50:08;28.00;72.40
360;DHT22;168;48.872;9.226;2022-07-23T09:52:48;28.00;71.80
360;DHT22;168;48.872;9.226;2022-07-23T09:55:16;27.80;72.40
360;DHT22;168;48.872;9.226;2022-07-23T09:57:45;27.80;72.50
360;DHT22;168;48.872;9.226;2022-07-23T10:00:16;27.70;72.50
360;DHT22;168;48.872;9.226;2022-07-23T10:02:46;27.70;72.50
360;DHT22;168;48.872;9.226;2022-07-23T10:05:14;27.60;72.20
360;DHT22;168;48.872;9.226;2022-07-23T10:07:45;27.60;71.70
360;DHT22;168;48.872;9.226;2022-07-23T10:10:14;27.60;72.20
360;DHT22;168;48.872;9.226;2022-07-23T10:12:43;27.50;70.40
360;DHT22;168;48.872;9.226;2022-07-23T10:15:19;27.50;71.90
360;DHT22;168;48.872;9.226;2022-07-23T10:17:48;27.50;72.00
360;DHT22;168;48.872;9.226;2022-07-23T10:20:15;27.50;71.80
360;DHT22;168;48.872;9.226;2022-07-23T10:22:53;27.40;72.00
360;DHT22;168;48.872;9.226;2022-07-23T10:25:29;27.30;72.40
360;DHT22;168;48.872;9.226;2022-07-23T10:28:19;27.40;72.40
360;DHT22;168;48.872;9.226;2022-07-23T10:31:05;27.40;72.70
360;DHT22;168;48.872;9.226;2022-07-23T10:33:41;27.60;72.40
360;DHT22;168;48.872;9.226;2022-07-23T10:36:19;27.80;73.40
360;DHT22;168;48.872;9.226;2022-07-23T10:38:52;27.80;71.50
360;DHT22;168;48.872;9.226;2022-07-23T10:41:32;27.70;70.50
360;DHT22;168;48.872;9.226;2022-07-23T10:44:08;27.60;71.40
360;DHT22;168;48.872;9.226;2022-07-23T10:46:36;27.60;71.70
360;DHT22;168;48.872;9.226;2022-07-23T10:49:22;27.70;72.00
360;DHT22;168;48.872;9.226;2022-07-23T10:52:19;27.70;70.70
360;DHT22;168;48.872;9.226;2022-07-23T10:54:50;27.70;69.90
360;DHT22;168;48.872;9.226;2022-07-23T10:57:19;27.70;69.80
360;DHT22;168;48.872;9.226;2022-07-23T11:00:14;27.80;68.30
360;DHT22;168;48.872;9.226;2022-07-23T11:08:10;27.70;69.90
360;DHT22;168;48.872;9.226;2022-07-23T11:10:40;27.60;69.60
360;DHT22;168;48.872;9.226;2022-07-23T11:13:31;27.60;68.30
360;DHT22;168;48.872;9.226;2022-07-23T11:16:21;27.70;68.20
360;DHT22;168;48.872;9.226;2022-07-23T11:19:09;27.80;66.90
360;DHT22;168;48.872;9.226;2022-07-23T11:21:55;27.70;67.50
360;DHT22;168;48.872;9.226;2022-07-23T11:24:24;27.80;66.80
360;DHT22;168;48.872;9.226;2022-07-23T11:27:02;27.80;67.60
360;DHT22;168;48.872;9.226;2022-07-23T11:29:47;27.90;66.50
360;DHT22;168;48.872;9.226;2022-07-23T11:32:22;27.80;67.60
360;DHT22;168;48.872;9.226;2022-07-23T11:34:51;27.70;68.40
360;DHT22;168;48.872;9.226;2022-07-23T11:37:35;27.80;67.40
360;DHT22;168;48.872;9.226;2022-07-23T11:40:07;27.80;66.30
360;DHT22;168;48.872;9.226;2022-07-23T11:42:38;27.80;67.50
360;DHT22;168;48.872;9.226;2022-07-23T11:45:07;27.80;66.40
360;DHT22;168;48.872;9.226;2022-07-23T11:47:36;27.90;67.40
360;DHT22;168;48.872;9.226;2022-07-23T11:50:05;28.00;66.60
360;DHT22;168;48.872;9.226;2022-07-23T11:52:34;28.00;66.00
360;DHT22;168;48.872;9.226;2022-07-23T11:55:03;27.90;66.70
360;DHT22;168;48.872;9.226;2022-07-23T11:57:32;27.90;67.00
360;DHT22;168;48.872;9.226;2022-07-23T12:00:05;28.00;66.20
360;DHT22;168;48.872;9.226;2022-07-23T12:02:33;28.10;66.60
360;DHT22;168;48.872;9.226;2022-07-23T12:05:01;28.20;66.30
360;DHT22;168;48.872;9.226;2022-07-23T12:07:31;28.10;66.90
360;DHT22;168;48.872;9.226;2022-07-23T12:10:00;28.10;67.00
360;DHT22;168;48.872;9.226;2022-07-23T12:12:35;28.20;66.70
360;DHT22;168;48.872;9.226;2022-07-23T12:15:05;28.30;66.70
360;DHT22;168;48.872;9.226;2022-07-23T12:17:36;28.50;66.70
360;DHT22;168;48.872;9.226;2022-07-23T12:20:06;28.60;66.30
360;DHT22;168;48.872;9.226;2022-07-23T12:22:35;28.80;67.20
360;DHT22;168;48.872;9.226;2022-07-23T12:25:05;29.00;66.40
360;DHT22;168;48.872;9.226;2022-07-23T12:27:34;29.00;66.20
360;DHT22;168;48.872;9.226;2022-07-23T12:30:23;29.00;67.30
360;DHT22;168;48.872;9.226;2022-07-23T12:32:52;29.20;65.20
360;DHT22;168;48.872;9.226;2022-07-23T12:35:21;29.10;64.70
360;DHT22;168;48.872;9.226;2022-07-23T12:37:50;29.00;65.80
360;DHT22;168;48.872;9.226;2022-07-23T12:40:24;29.00;66.00
360;DHT22;168;48.872;9.226;2022-07-23T12:42:53;29.20;66.50
360;DHT22;168;48.872;9.226;2022-07-23T12:45:23;29.30;66.00
360;DHT22;168;48.872;9.226;2022-07-23T12:47:56;29.20;65.40
360;DHT22;168;48.872;9.226;2022-07-23T12:50:42;29.20;65.50
360;DHT22;168;48.872;9.226;2022-07-23T12:53:12;29.30;66.10
360;DHT22;168;48.872;9.226;2022-07-23T12:55:40;29.50;65.90
360;DHT22;168;48.872;9.226;2022-07-23T12:58:11;29.40;66.40
360;DHT22;168;48.872;9.226;2022-07-23T13:01:01;29.40;66.40
360;DHT22;168;48.872;9.226;2022-07-23T13:03:32;29.20;67.20
360;DHT22;168;48.872;9.226;2022-07-23T13:06:01;29.10;66.30
360;DHT22;168;48.872;9.226;2022-07-23T13:08:30;29.20;65.60
360;DHT22;168;48.872;9.226;2022-07-23T13:10:58;29.30;64.30
360;DHT22;168;48.872;9.226;2022-07-23T13:13:28;29.20;65.50
360;DHT22;168;48.872;9.226;2022-07-23T13:15:57;29.20;65.50
360;DHT22;168;48.872;9.226;2022-07-23T13:18:26;29.30;64.80
360;DHT22;168;48.872;9.226;2022-07-23T13:20:55;29.20;62.60
360;DHT22;168;48.872;9.226;2022-07-23T13:23:23;29.20;62.50
360;DHT22;168;48.872;9.226;2022-07-23T13:25:51;29.10;62.80
360;DHT22;168;48.872;9.226;2022-07-23T13:28:19;28.90;63.80
360;DHT22;168;48.872;9.226;2022-07-23T13:30:49;28.90;64.10
360;DHT22;168;48.872;9.226;2022-07-23T13:33:17;28.90;64.50
360;DHT22;168;48.872;9.226;2022-07-23T13:35:47;29.00;65.90
360;DHT22;168;48.872;9.226;2022-07-23T13:38:15;29.10;66.00
360;DHT22;168;48.872;9.226;2022-07-23T13:40:44;29.10;66.30
360;DHT22;168;48.872;9.226;2022-07-23T13:43:13;29.10;66.60
360;DHT22;168;48.872;9.226;2022-07-23T13:45:42;29.30;64.60
360;DHT22;168;48.872;9.226;2022-07-23T13:48:10;29.30;64.80
360;DHT22;168;48.872;9.226;2022-07-23T13:50:39;29.40;64.80
360;DHT22;168;48.872;9.226;2022-07-23T13:53:11;29.50;64.70
360;DHT22;168;48.872;9.226;2022-07-23T13:55:39;29.70;63.20
360;DHT22;168;48.872;9.226;2022-07-23T13:58:08;29.90;62.10
360;DHT22;168;48.872;9.226;2022-07-23T14:00:37;30.00;62.60
360;DHT22;168;48.872;9.226;2022-07-23T14:03:05;30.00;62.30
360;DHT22;168;48.872;9.226;2022-07-23T14:05:33;30.10;61.60
360;DHT22;168;48.872;9.226;2022-07-23T14:08:01;30.20;61.60
360;DHT22;168;48.872;9.226;2022-07-23T14:10:30;30.40;61.50
360;DHT22;168;48.872;9.226;2022-07-23T14:12:57;30.50;60.20
360;DHT22;168;48.872;9.226;2022-07-23T14:15:26;30.70;59.60
360;DHT22;168;48.872;9.226;2022-07-23T14:17:54;30.70;59.30
360;DHT22;168;48.872;9.226;2022-07-23T14:20:22;30.70;58.60
360;DHT22;168;48.872;9.226;2022-07-23T14:22:49;30.90;57.90
360;DHT22;168;48.872;9.226;2022-07-23T14:25:17;31.00;58.10
360;DHT22;168;48.872;9.226;2022-07-23T14:27:46;31.10;57.80
360;DHT22;168;48.872;9.226;2022-07-23T14:30:13;31.30;57.90
360;DHT22;168;48.872;9.226;2022-07-23T14:32:42;31.20;57.70
360;DHT22;168;48.872;9.226;2022-07-23T14:35:09;31.30;56.60
360;DHT22;168;48.872;9.226;2022-07-23T14:37:39;31.20;56.90
360;DHT22;168;48.872;9.226;2022-07-23T14:40:07;31.00;56.80
360;DHT22;168;48.872;9.226;2022-07-23T14:42:35;30.90;57.20
360;DHT22;168;48.872;9.226;2022-07-23T14:45:04;31.00;57.60
360;DHT22;168;48.872;9.226;2022-07-23T14:47:32;31.30;57.80
360;DHT22;168;48.872;9.226;2022-07-23T14:50:00;31.60;56.60
360;DHT22;168;48.872;9.226;2022-07-23T14:52:27;31.60;55.70
360;DHT22;168;48.872;9.226;2022-07-23T14:54:55;31.50;56.50
360;DHT22;168;48.872;9.226;2022-07-23T14:57:22;31.70;56.40
360;DHT22;168;48.872;9.226;2022-07-23T14:59:50;31.70;56.00
360;DHT22;168;48.872;9.226;2022-07-23T15:02:19;31.80;56.30
360;DHT22;168;48.872;9.226;2022-07-23T15:04:46;31.90;57.10
360;DHT22;168;48.872;9.226;2022-07-23T15:07:14;32.00;55.50
360;DHT22;168;48.872;9.226;2022-07-23T15:09:41;32.10;55.40
360;DHT22;168;48.872;9.226;2022-07-23T15:12:09;32.00;55.60
360;DHT22;168;48.872;9.226;2022-07-23T15:14:36;31.70;56.20
360;DHT22;168;48.872;9.226;2022-07-23T15:17:04;31.60;56.80
360;DHT22;168;48.872;9.226;2022-07-23T15:19:33;31.80;56.50
360;DHT22;168;48.872;9.226;2022-07-23T15:22:00;31.70;56.60
360;DHT22;168;48.872;9.226;2022-07-23T15:24:28;31.60;57.10
360;DHT22;168;48.872;9.226;2022-07-23T15:26:56;31.50;57.50
360;DHT22;168;48.872;9.226;2022-07-23T15:29:23;31.60;57.50
360;DHT22;168;48.872;9.226;2022-07-23T15:31:51;31.70;57.30
360;DHT22;168;48.872;9.226;2022-07-23T15:34:19;32.10;56.50
360;DHT22;168;48.872;9.226;2022-07-23T15:36:48;32.50;55.40
360;DHT22;168;48.872;9.226;2022-07-23T15:39:15;32.70;55.20
360;DHT22;168;48.872;9.226;2022-07-23T15:41:43;33.00;55.80
360;DHT22;168;48.872;9.226;2022-07-23T15:44:12;33.30;54.80
360;DHT22;168;48.872;9.226;2022-07-23T15:46:40;33.40;54.00
360;DHT22;168;48.872;9.226;2022-07-23T15:49:07;32.90;54.90
360;DHT22;168;48.872;9.226;2022-07-23T15:51:34;33.00;54.90
360;DHT22;168;48.872;9.226;2022-07-23T15:54:04;33.10;55.10
360;DHT22;168;48.872;9.226;2022-07-23T15:56:31;33.30;54.30
360;DHT22;168;48.872;9.226;2022-07-23T15:58:58;33.20;54.50
360;DHT22;168;48.872;9.226;2022-07-23T16:01:26;33.20;54.50
360;DHT22;168;48.872;9.226;2022-07-23T16:03:55;33.50;54.60
360;DHT22;168;48.872;9.226;2022-07-23T16:06:25;33.60;53.50
360;DHT22;168;48.872;9.226;2022-07-23T16:08:52;33.30;54.20
360;DHT22;168;48.872;9.226;2022-07-23T16:11:21;33.40;53.70
360;DHT22;168;48.872;9.226;2022-07-23T16:13:48;33.40;54.70
360;DHT22;168;48.872;9.226;2022-07-23T16:16:16;33.20;56.10
360;DHT22;168;48.872;9.226;2022-07-23T16:18:44;33.10;56.00
360;DHT22;168;48.872;9.226;2022-07-23T16:21:16;33.20;56.00
360;DHT22;168;48.872;9.226;2022-07-23T16:23:44;32.50;56.80
360;DHT22;168;48.872;9.226;2022-07-23T16:26:12;32.10;56.70
360;DHT22;168;48.872;9.226;2022-07-23T16:28:42;31.80;58.00
360;DHT22;168;48.872;9.226;2022-07-23T16:31:10;31.30;59.40
360;DHT22;168;48.872;9.226;2022-07-23T16:33:39;31.40;59.90
360;DHT22;168;48.872;9.226;2022-07-23T16:36:07;31.50;59.90
360;DHT22;168;48.872;9.226;2022-07-23T16:38:35;31.40;59.80
360;DHT22;168;48.872;9.226;2022-07-23T16:41:04;31.40;60.50
360;DHT22;168;48.872;9.226;2022-07-23T16:43:32;31.60;59.80
360;DHT22;168;48.872;9.226;2022-07-23T16:46:01;31.70;59.50
360;DHT22;168;48.872;9.226;2022-07-23T16:48:29;31.80;59.60
360;DHT22;168;48.872;9.226;2022-07-23T16:50:56;31.90;58.40
360;DHT22;168;48.872;9.226;2022-07-23T16:53:24;31.50;59.60
360;DHT22;168;48.872;9.226;2022-07-23T16:55:51;31.10;60.40
360;DHT22;168;48.872;9.226;2022-07-23T16:58:19;30.90;60.40